Station History

Weather Underground - logo

Station Historical Data
Daily Summary for September 4, 2017 Units:  English    Metric   Both
« Previous Day
Next Day »
Daily Weekly Monthly Yearly Custom
  High: Low: Average:
Temperature: 101.5 °F 75.8 °F 87 °F
Dew Point: 72.8 °F 67.1 °F 69.6 °F
Humidity: 81 % 35 % 59 %
Wind Speed: 8.1 mph 0.0 mph 1.3 mph
Wind Gust: 5.8 mph - -
Wind:- - SSW
Pressure: 29.81 in 29.69 in -
Precipitation: 0.00 in    
Historical Graphs
 
 
Tabular Data for September 4, 2017
Time Temperature Dew Point Pressure Wind Wind Speed Wind Gust Humidity Rainfall Rate (Hourly)
00:01 85.7 °F 67.1 °F 29.81 in Calm     54 % 0.00 in
00:06 85.2 °F 68.2 °F 29.81 in Calm     57 % 0.00 in
00:11 84.5 °F 68.1 °F 29.81 in Calm     58 % 0.00 in
00:16 83.9 °F 68.0 °F 29.81 in Calm     59 % 0.00 in
00:21 83.2 °F 68.3 °F 29.80 in Calm     61 % 0.00 in
00:26 82.5 °F 68.6 °F 29.80 in Calm     63 % 0.00 in
00:31 81.9 °F 68.5 °F 29.80 in Calm     64 % 0.00 in
00:36 81.7 °F 68.8 °F 29.80 in Calm     65 % 0.00 in
00:41 81.4 °F 68.9 °F 29.80 in Calm     66 % 0.00 in
00:46 81.4 °F 69.4 °F 29.80 in SE 2.0 mph 2.0 mph 67 % 0.00 in
00:51 80.9 °F 68.9 °F 29.80 in Calm     67 % 0.00 in
00:56 80.4 °F 69.3 °F 29.80 in SE 1.2 mph   69 % 0.00 in
01:01 79.9 °F 69.2 °F 29.80 in Calm     70 % 0.00 in
01:06 79.6 °F 69.0 °F 29.80 in East 2.3 mph 2.3 mph 70 % 0.00 in
01:11 79.5 °F 69.3 °F 29.81 in SSE 1.2 mph   71 % 0.00 in
01:16 79.3 °F 69.1 °F 29.80 in East 2.3 mph 2.3 mph 71 % 0.00 in
01:21 79.2 °F 69.4 °F 29.80 in East 1.2 mph 1.2 mph 72 % 0.00 in
01:26 79.0 °F 69.2 °F 29.80 in ESE 1.2 mph 1.2 mph 72 % 0.00 in
01:31 78.9 °F 69.1 °F 29.80 in Calm     72 % 0.00 in
01:36 78.8 °F 69.4 °F 29.79 in Calm     73 % 0.00 in
01:41 78.6 °F 69.2 °F 29.79 in Calm     73 % 0.00 in
01:46 78.4 °F 69.4 °F 29.79 in Calm     74 % 0.00 in
01:51 78.1 °F 69.5 °F 29.79 in Calm     75 % 0.00 in
01:56 77.9 °F 69.3 °F 29.78 in Calm     75 % 0.00 in
02:01 77.7 °F 69.1 °F 29.78 in Calm     75 % 0.00 in
02:06 77.6 °F 69.4 °F 29.78 in SE 8.1 mph   76 % 0.00 in
02:11 77.5 °F 69.3 °F 29.78 in Calm     76 % 0.00 in
02:16 77.4 °F 69.6 °F 29.78 in Calm     77 % 0.00 in
02:21 77.4 °F 69.2 °F 29.78 in Calm     76 % 0.00 in
02:31 77.4 °F 69.6 °F 29.78 in Calm     77 % 0.00 in
02:36 77.3 °F 69.5 °F 29.78 in Calm     77 % 0.00 in
02:41 77.3 °F 69.9 °F 29.78 in Calm     78 % 0.00 in
02:46 77.3 °F 69.5 °F 29.78 in Calm     77 % 0.00 in
02:51 77.2 °F 69.8 °F 29.78 in Calm     78 % 0.00 in
02:56 77.0 °F 69.2 °F 29.78 in Calm     77 % 0.00 in
03:01 76.9 °F 69.9 °F 29.78 in Calm     79 % 0.00 in
03:06 76.8 °F 69.8 °F 29.77 in Calm     79 % 0.00 in
03:11 76.6 °F 69.2 °F 29.77 in Calm     78 % 0.00 in
03:16 76.5 °F 69.1 °F 29.77 in Calm     78 % 0.00 in
03:21 76.4 °F 69.4 °F 29.78 in Calm     79 % 0.00 in
03:26 76.4 °F 69.4 °F 29.77 in Calm     79 % 0.00 in
03:31 76.3 °F 68.9 °F 29.77 in Calm     78 % 0.00 in
03:36 76.2 °F 69.6 °F 29.77 in Calm     80 % 0.00 in
03:41 76.2 °F 69.2 °F 29.77 in Calm     79 % 0.00 in
03:46 76.3 °F 69.3 °F 29.77 in Calm     79 % 0.00 in
03:51 76.4 °F 69.4 °F 29.77 in Calm     79 % 0.00 in
03:57 76.6 °F 70.0 °F 29.76 in Calm     80 % 0.00 in
04:02 76.6 °F 69.6 °F 29.77 in Calm     79 % 0.00 in
04:07 76.7 °F 69.7 °F 29.77 in Calm     79 % 0.00 in
04:12 76.7 °F 69.7 °F 29.77 in Calm     79 % 0.00 in
04:17 76.8 °F 70.2 °F 29.77 in Calm     80 % 0.00 in
04:22 76.7 °F 70.1 °F 29.77 in Calm     80 % 0.00 in
04:27 76.9 °F 70.3 °F 29.77 in Calm     80 % 0.00 in
04:32 77.0 °F 70.0 °F 29.76 in Calm     79 % 0.00 in
04:37 77.3 °F 69.9 °F 29.76 in Calm     78 % 0.00 in
04:42 77.7 °F 69.5 °F 29.76 in Calm     76 % 0.00 in
04:47 78.0 °F 69.4 °F 29.76 in Calm     75 % 0.00 in
04:52 78.1 °F 69.5 °F 29.75 in Calm     75 % 0.00 in
04:57 78.2 °F 69.2 °F 29.75 in Calm     74 % 0.00 in
05:02 78.2 °F 69.2 °F 29.75 in Calm     74 % 0.00 in
05:07 78.3 °F 69.3 °F 29.75 in NW 1.2 mph 1.2 mph 74 % 0.00 in
05:12 78.3 °F 69.3 °F 29.74 in NNW 3.5 mph 3.5 mph 74 % 0.00 in
05:17 78.3 °F 69.3 °F 29.74 in NW 2.3 mph 2.3 mph 74 % 0.00 in
05:22 78.3 °F 69.3 °F 29.75 in Calm     74 % 0.00 in
05:27 78.3 °F 69.3 °F 29.75 in North 1.2 mph   74 % 0.00 in
05:32 78.3 °F 69.3 °F 29.76 in North 1.2 mph 1.2 mph 74 % 0.00 in
05:37 78.0 °F 69.4 °F 29.76 in Calm     75 % 0.00 in
05:42 77.8 °F 69.6 °F 29.75 in Calm     76 % 0.00 in
05:47 77.5 °F 69.7 °F 29.76 in Calm     77 % 0.00 in
05:52 77.3 °F 69.5 °F 29.76 in North 1.2 mph   77 % 0.00 in
05:57 77.1 °F 69.7 °F 29.76 in Calm     78 % 0.00 in
06:02 77.0 °F 69.6 °F 29.76 in Calm     78 % 0.00 in
06:07 77.0 °F 70.0 °F 29.76 in Calm     79 % 0.00 in
06:12 76.9 °F 69.9 °F 29.76 in Calm     79 % 0.00 in
06:17 76.7 °F 70.1 °F 29.76 in Calm     80 % 0.00 in
06:22 76.5 °F 69.9 °F 29.76 in Calm     80 % 0.00 in
06:27 76.3 °F 70.0 °F 29.77 in North 1.2 mph   81 % 0.00 in
06:32 76.1 °F 69.8 °F 29.77 in North 1.2 mph   81 % 0.00 in
06:37 76.1 °F 69.8 °F 29.77 in Calm     81 % 0.00 in
06:42 76.0 °F 69.7 °F 29.78 in North 1.2 mph 1.2 mph 81 % 0.00 in
06:48 76.0 °F 69.7 °F 29.77 in North 1.2 mph   81 % 0.00 in
06:53 75.9 °F 69.6 °F 29.77 in Calm     81 % 0.00 in
06:58 75.8 °F 69.6 °F 29.77 in Calm     81 % 0.00 in
07:03 75.8 °F 69.6 °F 29.78 in Calm     81 % 0.00 in
07:08 75.9 °F 69.6 °F 29.78 in Calm   0.1 mph 81 % 0.00 in
07:13 76.0 °F 69.7 °F 29.78 in Calm     81 % 0.00 in
07:18 76.2 °F 69.6 °F 29.79 in Calm     80 % 0.00 in
07:23 76.5 °F 69.5 °F 29.78 in Calm     79 % 0.00 in
07:28 76.9 °F 69.5 °F 29.78 in Calm     78 % 0.00 in
07:33 77.2 °F 69.0 °F 29.78 in Calm     76 % 0.00 in
07:38 77.6 °F 69.0 °F 29.78 in Calm     75 % 0.00 in
07:43 78.0 °F 69.0 °F 29.79 in NNE 1.2 mph 1.2 mph 74 % 0.00 in
07:48 78.4 °F 69.4 °F 29.78 in Calm     74 % 0.00 in
07:53 78.7 °F 69.7 °F 29.79 in Calm     74 % 0.00 in
07:58 78.9 °F 69.9 °F 29.79 in NNE 1.2 mph   74 % 0.00 in
08:03 79.1 °F 70.1 °F 29.79 in Calm     74 % 0.00 in
08:08 79.3 °F 69.5 °F 29.79 in Calm     72 % 0.00 in
08:13 79.6 °F 69.8 °F 29.79 in Calm     72 % 0.00 in
08:18 79.8 °F 69.6 °F 29.79 in Calm     71 % 0.00 in
08:23 80.1 °F 69.4 °F 29.79 in Calm     70 % 0.00 in
08:28 80.4 °F 70.1 °F 29.79 in Calm     71 % 0.00 in
08:33 80.8 °F 70.1 °F 29.79 in Calm     70 % 0.00 in
08:38 81.3 °F 70.2 °F 29.79 in Calm     69 % 0.00 in
08:43 81.8 °F 69.3 °F 29.79 in Calm     66 % 0.00 in
08:48 82.3 °F 70.7 °F 29.79 in Calm     68 % 0.00 in
08:53 82.6 °F 69.6 °F 29.79 in NNE 1.2 mph   65 % 0.00 in
08:58 83.0 °F 70.0 °F 29.79 in Calm     65 % 0.00 in
09:03 83.4 °F 69.9 °F 29.79 in Calm     64 % 0.00 in
09:08 83.8 °F 68.9 °F 29.79 in NNE 1.2 mph   61 % 0.00 in
09:13 84.3 °F 70.8 °F 29.79 in Calm     64 % 0.00 in
09:18 84.7 °F 70.2 °F 29.79 in Calm     62 % 0.00 in
09:23 85.1 °F 69.7 °F 29.79 in Calm     60 % 0.00 in
09:28 85.7 °F 69.2 °F 29.79 in Calm     58 % 0.00 in
09:33 86.3 °F 70.8 °F 29.79 in Calm     60 % 0.00 in
09:38 86.7 °F 70.7 °F 29.80 in Calm     59 % 0.00 in
09:43 87.0 °F 69.9 °F 29.79 in Calm     57 % 0.00 in
09:48 87.4 °F 70.8 °F 29.80 in Calm     58 % 0.00 in
09:53 87.5 °F 70.9 °F 29.80 in ESE 1.0 mph 1.0 mph 58 % 0.00 in
09:58 87.9 °F 71.3 °F 29.80 in SSE 2.3 mph 2.3 mph 58 % 0.00 in
10:03 88.4 °F 71.7 °F 29.80 in SSE 1.2 mph   58 % 0.00 in
10:08 89.2 °F 70.9 °F 29.80 in SSE 2.3 mph 2.3 mph 55 % 0.00 in
10:13 89.7 °F 69.7 °F 29.80 in South 2.3 mph 2.3 mph 52 % 0.00 in
10:18 90.1 °F 70.1 °F 29.80 in SSE 3.0 mph 3.0 mph 52 % 0.00 in
10:23 90.3 °F 71.4 °F 29.79 in SSE 1.2 mph 1.2 mph 54 % 0.00 in
10:29 90.8 °F 70.7 °F 29.79 in SSW 2.3 mph 2.3 mph 52 % 0.00 in
10:34 91.3 °F 70.6 °F 29.79 in SE 4.0 mph 4.0 mph 51 % 0.00 in
10:44 91.5 °F 69.6 °F 29.79 in SSE 3.5 mph 3.5 mph 49 % 0.00 in
10:49 91.8 °F 68.1 °F 29.79 in ESE 1.2 mph 1.2 mph 46 % 0.00 in
10:54 92.1 °F 70.8 °F 29.79 in SE 1.2 mph 1.2 mph 50 % 0.00 in
10:59 92.6 °F 69.4 °F 29.79 in SSE 3.5 mph 3.5 mph 47 % 0.00 in
11:04 92.8 °F 69.6 °F 29.79 in SSW 2.3 mph 2.3 mph 47 % 0.00 in
11:09 93.0 °F 68.5 °F 29.79 in ESE 2.0 mph 2.0 mph 45 % 0.00 in
11:14 93.3 °F 69.4 °F 29.79 in SE 2.3 mph 2.3 mph 46 % 0.00 in
11:19 93.5 °F 70.2 °F 29.78 in SE 1.2 mph 1.2 mph 47 % 0.00 in
11:24 93.7 °F 70.4 °F 29.78 in SSE 2.3 mph 2.3 mph 47 % 0.00 in
11:29 93.7 °F 69.2 °F 29.78 in SSE 3.5 mph 3.5 mph 45 % 0.00 in
11:34 93.9 °F 68.7 °F 29.78 in Calm     44 % 0.00 in
11:39 94.1 °F 69.5 °F 29.78 in ESE 3.0 mph 3.0 mph 45 % 0.00 in
11:44 94.2 °F 70.2 °F 29.78 in ENE 2.3 mph 2.3 mph 46 % 0.00 in
11:49 94.5 °F 71.2 °F 29.77 in NW 2.3 mph 2.3 mph 47 % 0.00 in
11:54 94.6 °F 71.2 °F 29.77 in SSE 2.3 mph 2.3 mph 47 % 0.00 in
11:59 94.9 °F 72.8 °F 29.77 in Calm     49 % 0.00 in
12:04 95.3 °F 71.2 °F 29.77 in WNW 1.2 mph 1.2 mph 46 % 0.00 in
12:09 94.7 °F 70.7 °F 29.77 in NW 1.2 mph 1.2 mph 46 % 0.00 in
12:13 94.5 °F 69.2 °F 29.77 in NW 2.0 mph 2.0 mph 44 % 0.00 in
12:18 94.3 °F 71.0 °F 29.77 in NE 1.2 mph 1.2 mph 47 % 0.00 in
12:23 95.3 °F 71.9 °F 29.76 in Calm     47 % 0.00 in
12:33 96.4 °F 70.3 °F 29.76 in SSE 1.2 mph 1.2 mph 43 % 0.00 in
12:38 96.6 °F 69.7 °F 29.76 in NW 1.2 mph 1.2 mph 42 % 0.00 in
12:43 96.7 °F 69.8 °F 29.76 in South 1.2 mph 1.2 mph 42 % 0.00 in
12:53 96.8 °F 69.2 °F 29.76 in West 1.2 mph   41 % 0.00 in
12:58 96.6 °F 68.3 °F 29.75 in WNW 2.3 mph 2.3 mph 40 % 0.00 in
13:03 96.4 °F 69.6 °F 29.75 in West 1.2 mph 1.2 mph 42 % 0.00 in
13:08 96.9 °F 68.6 °F 29.75 in Calm   0.2 mph 40 % 0.00 in
13:09 96.9 °F 70.0 °F 29.75 in Calm   0.2 mph 42 % 0.00 in
13:14 97.3 °F 68.9 °F 29.74 in WNW 2.3 mph 2.5 mph 40 % 0.00 in
13:19 97.2 °F 70.3 °F 29.74 in SSW 2.3 mph 2.3 mph 42 % 0.00 in
13:24 97.8 °F 70.1 °F 29.74 in NW 1.2 mph   41 % 0.00 in
13:29 97.8 °F 70.8 °F 29.74 in NNW 3.5 mph 3.5 mph 42 % 0.00 in
13:34 98.0 °F 70.3 °F 29.74 in NE 1.2 mph 1.2 mph 41 % 0.00 in
13:35 98.2 °F 69.7 °F 29.74 in Calm     40 % 0.00 in
13:40 98.7 °F 69.4 °F 29.74 in SE 2.3 mph 2.3 mph 39 % 0.00 in
13:45 99.2 °F 69.9 °F 29.74 in Calm     39 % 0.00 in
13:50 99.0 °F 68.2 °F 29.74 in NW 2.3 mph 2.3 mph 37 % 0.00 in
13:55 98.9 °F 68.1 °F 29.74 in NE 1.2 mph 1.2 mph 37 % 0.00 in
14:00 99.5 °F 68.6 °F 29.74 in WNW 2.3 mph 2.3 mph 37 % 0.00 in
14:05 100.0 °F 69.8 °F 29.73 in NW 3.5 mph 3.5 mph 38 % 0.00 in
14:10 100.3 °F 70.1 °F 29.73 in NNE 1.2 mph 1.2 mph 38 % 0.00 in
14:15 101.0 °F 69.9 °F 29.73 in SW 2.3 mph 2.3 mph 37 % 0.00 in
14:20 101.5 °F 69.6 °F 29.73 in NNW 2.3 mph 2.3 mph 36 % 0.00 in
14:22 101.4 °F 69.5 °F 29.73 in North 3.5 mph 3.5 mph 36 % 0.00 in
14:27 101.2 °F 68.5 °F 29.73 in West 2.3 mph 2.3 mph 35 % 0.00 in
14:32 101.1 °F 69.2 °F 29.72 in NNE 3.5 mph 3.5 mph 36 % 0.00 in
14:37 100.9 °F 71.4 °F 29.72 in NNW 3.5 mph 3.5 mph 39 % 0.00 in
14:42 101.1 °F 70.8 °F 29.72 in South 3.5 mph 3.5 mph 38 % 0.00 in
14:47 101.3 °F 69.4 °F 29.71 in WNW 3.5 mph 3.5 mph 36 % 0.00 in
14:49 101.4 °F 69.5 °F 29.71 in NW 3.5 mph 3.5 mph 36 % 0.00 in
14:54 101.3 °F 69.4 °F 29.71 in West 3.5 mph 3.5 mph 36 % 0.00 in
14:59 101.1 °F 69.2 °F 29.71 in NW 2.3 mph 2.3 mph 36 % 0.00 in
15:04 100.9 °F 68.2 °F 29.71 in NW 3.5 mph 3.5 mph 35 % 0.00 in
15:10 100.6 °F 68.8 °F 29.71 in NNW 2.3 mph 2.3 mph 36 % 0.00 in
15:14 100.6 °F 68.0 °F 29.71 in WNW 2.3 mph 2.3 mph 35 % 0.00 in
15:20 100.7 °F 71.2 °F 29.71 in NW 3.5 mph 3.5 mph 39 % 0.00 in
15:25 100.1 °F 69.1 °F 29.71 in NNE 1.2 mph 1.2 mph 37 % 0.00 in
15:30 100.1 °F 69.1 °F 29.71 in East 2.3 mph 2.3 mph 37 % 0.00 in
15:35 99.6 °F 67.9 °F 29.70 in WSW 3.5 mph 3.5 mph 36 % 0.00 in
15:40 99.1 °F 69.0 °F 29.70 in NW 2.3 mph 2.3 mph 38 % 0.00 in
15:45 98.9 °F 68.9 °F 29.70 in NW 2.3 mph 2.3 mph 38 % 0.00 in
15:50 99.2 °F 67.6 °F 29.70 in West 2.3 mph 2.3 mph 36 % 0.00 in
15:55 99.0 °F 68.2 °F 29.70 in NW 3.5 mph 3.5 mph 37 % 0.00 in
16:00 99.1 °F 69.0 °F 29.70 in NNE 1.2 mph 1.2 mph 38 % 0.00 in
16:05 99.3 °F 68.4 °F 29.70 in NE 4.6 mph 4.6 mph 37 % 0.00 in
16:10 99.3 °F 67.6 °F 29.70 in WSW 3.5 mph 3.5 mph 36 % 0.00 in
16:15 99.6 °F 68.7 °F 29.70 in WSW 1.2 mph 1.2 mph 37 % 0.00 in
16:20 99.3 °F 68.4 °F 29.70 in West 1.2 mph 1.2 mph 37 % 0.00 in
16:25 99.5 °F 67.8 °F 29.70 in NW 3.5 mph 3.5 mph 36 % 0.00 in
16:30 99.4 °F 67.7 °F 29.70 in NE 2.3 mph 2.3 mph 36 % 0.00 in
16:35 99.5 °F 70.2 °F 29.70 in NW 1.2 mph 1.2 mph 39 % 0.00 in
16:40 99.3 °F 68.4 °F 29.70 in SSW 1.2 mph 1.2 mph 37 % 0.00 in
16:45 99.4 °F 69.3 °F 29.70 in ESE 1.2 mph 1.2 mph 38 % 0.00 in
16:50 99.3 °F 69.2 °F 29.69 in Calm     38 % 0.00 in
16:55 99.3 °F 69.2 °F 29.69 in WNW 2.3 mph 2.3 mph 38 % 0.00 in
17:00 99.4 °F 68.5 °F 29.69 in NW 2.3 mph 2.3 mph 37 % 0.00 in
17:05 99.5 °F 70.2 °F 29.69 in ESE 1.2 mph   39 % 0.00 in
17:06 99.5 °F 70.2 °F 29.69 in ESE 1.2 mph   39 % 0.00 in
17:11 99.9 °F 70.5 °F 29.69 in West 1.2 mph 1.2 mph 39 % 0.00 in
17:16 99.8 °F 68.9 °F 29.69 in NW 2.3 mph 2.3 mph 37 % 0.00 in
17:21 99.4 °F 68.5 °F 29.69 in NW 2.3 mph 2.3 mph 37 % 0.00 in
17:26 99.3 °F 69.2 °F 29.69 in NW 3.5 mph 3.5 mph 38 % 0.00 in
17:31 98.8 °F 68.8 °F 29.69 in North 3.5 mph 3.5 mph 38 % 0.00 in
17:36 98.5 °F 68.5 °F 29.69 in NW 3.5 mph 3.5 mph 38 % 0.00 in
17:41 97.9 °F 68.0 °F 29.69 in NNW 2.3 mph 2.3 mph 38 % 0.00 in
17:46 97.4 °F 68.3 °F 29.69 in NW 3.5 mph 3.5 mph 39 % 0.00 in
17:51 96.9 °F 68.6 °F 29.69 in WNW 2.3 mph 2.3 mph 40 % 0.00 in
17:56 97.0 °F 69.4 °F 29.69 in WNW 1.2 mph 1.2 mph 41 % 0.00 in
18:01 97.1 °F 68.8 °F 29.69 in WNW 2.3 mph 2.3 mph 40 % 0.00 in
18:06 97.1 °F 69.5 °F 29.69 in WNW 2.0 mph 2.0 mph 41 % 0.00 in
18:11 96.8 °F 69.2 °F 29.69 in WNW 3.5 mph 3.5 mph 41 % 0.00 in
18:16 96.5 °F 68.9 °F 29.69 in NW 3.5 mph 3.5 mph 41 % 0.00 in
18:21 96.2 °F 69.4 °F 29.69 in NW 3.0 mph 3.0 mph 42 % 0.00 in
18:26 95.8 °F 69.7 °F 29.69 in NNW 1.2 mph 1.2 mph 43 % 0.00 in
18:31 95.4 °F 70.0 °F 29.69 in NW 2.3 mph 2.3 mph 44 % 0.00 in
18:36 95.0 °F 69.0 °F 29.69 in NW 2.3 mph 2.3 mph 43 % 0.00 in
18:41 95.0 °F 69.7 °F 29.69 in NW 1.2 mph 1.2 mph 44 % 0.00 in
18:46 94.9 °F 68.9 °F 29.69 in NW 3.5 mph 3.5 mph 43 % 0.00 in
18:51 94.7 °F 68.7 °F 29.69 in NW 3.5 mph 3.5 mph 43 % 0.00 in
18:56 94.5 °F 68.5 °F 29.69 in NW 2.3 mph 2.3 mph 43 % 0.00 in
19:01 94.4 °F 69.1 °F 29.69 in Calm     44 % 0.00 in
19:06 94.1 °F 69.5 °F 29.69 in Calm     45 % 0.00 in
19:11 93.6 °F 69.7 °F 29.69 in Calm     46 % 0.00 in
19:16 93.2 °F 70.0 °F 29.69 in Calm     47 % 0.00 in
19:21 92.7 °F 70.1 °F 29.70 in Calm     48 % 0.00 in
19:26 92.2 °F 70.9 °F 29.70 in Calm     50 % 0.00 in
19:36 90.9 °F 71.4 °F 29.70 in Calm     53 % 0.00 in
19:41 90.3 °F 70.8 °F 29.70 in Calm     53 % 0.00 in
19:46 89.8 °F 70.9 °F 29.70 in Calm     54 % 0.00 in
19:51 89.4 °F 71.6 °F 29.70 in Calm     56 % 0.00 in
19:56 89.0 °F 72.8 °F 29.71 in Calm     59 % 0.00 in
20:01 88.5 °F 71.3 °F 29.71 in South 1.0 mph 1.0 mph 57 % 0.00 in
20:06 87.8 °F 72.2 °F 29.71 in SE 3.5 mph 3.5 mph 60 % 0.00 in
20:12 87.0 °F 71.9 °F 29.72 in Calm   0.1 mph 61 % 0.00 in
20:17 86.5 °F 72.4 °F 29.72 in South 2.3 mph   63 % 0.00 in
20:21 86.2 °F 72.1 °F 29.72 in SSE 2.3 mph 2.3 mph 63 % 0.00 in
20:25 85.8 °F 71.7 °F 29.72 in SSE 2.3 mph 2.3 mph 63 % 0.00 in
20:30 85.5 °F 71.5 °F 29.73 in SSE 3.5 mph 3.5 mph 63 % 0.00 in
20:32 85.4 °F 71.4 °F 29.73 in South 2.3 mph 2.3 mph 63 % 0.00 in
20:37 85.1 °F 71.1 °F 29.74 in South 3.5 mph 3.5 mph 63 % 0.00 in
20:42 84.8 °F 70.8 °F 29.74 in SE 2.0 mph 2.0 mph 63 % 0.00 in
20:47 84.6 °F 70.6 °F 29.74 in SE 1.2 mph 1.2 mph 63 % 0.00 in
20:52 84.3 °F 70.3 °F 29.74 in ESE 2.3 mph 2.3 mph 63 % 0.00 in
20:57 84.3 °F 70.3 °F 29.74 in SE 2.3 mph 2.3 mph 63 % 0.00 in
21:02 84.1 °F 70.1 °F 29.75 in ESE 3.5 mph 3.5 mph 63 % 0.00 in
21:07 84.0 °F 70.0 °F 29.75 in SE 2.3 mph 2.3 mph 63 % 0.00 in
21:12 83.8 °F 70.3 °F 29.75 in SSE 3.5 mph 3.5 mph 64 % 0.00 in
21:17 83.7 °F 70.2 °F 29.75 in SE 3.5 mph 3.5 mph 64 % 0.00 in
21:22 83.7 °F 69.8 °F 29.76 in East 3.5 mph 3.5 mph 63 % 0.00 in
21:27 83.6 °F 70.1 °F 29.76 in ESE 4.0 mph 4.0 mph 64 % 0.00 in
21:32 83.5 °F 70.0 °F 29.76 in ESE 2.3 mph 2.3 mph 64 % 0.00 in
21:37 83.4 °F 69.5 °F 29.77 in SSW 2.3 mph 2.3 mph 63 % 0.00 in
21:42 83.2 °F 69.3 °F 29.77 in NE 3.5 mph 3.5 mph 63 % 0.00 in
21:47 83.0 °F 69.6 °F 29.77 in SE 3.5 mph 3.5 mph 64 % 0.00 in
21:52 82.8 °F 69.4 °F 29.77 in SSE 3.5 mph 3.5 mph 64 % 0.00 in
21:57 82.6 °F 69.2 °F 29.77 in SSW 2.3 mph 2.3 mph 64 % 0.00 in
22:02 82.5 °F 69.1 °F 29.77 in ESE 3.5 mph 3.5 mph 64 % 0.00 in
22:07 82.5 °F 69.1 °F 29.77 in SE 2.3 mph 2.3 mph 64 % 0.00 in
22:12 82.3 °F 69.4 °F 29.77 in ESE 2.3 mph 2.3 mph 65 % 0.00 in
22:17 82.1 °F 69.2 °F 29.77 in ESE 2.3 mph 2.3 mph 65 % 0.00 in
22:22 81.9 °F 69.0 °F 29.77 in ESE 5.8 mph 5.8 mph 65 % 0.00 in
22:27 81.8 °F 69.3 °F 29.78 in East 3.5 mph 3.5 mph 66 % 0.00 in
22:32 81.7 °F 69.2 °F 29.77 in East 2.3 mph 2.3 mph 66 % 0.00 in
22:37 81.5 °F 69.5 °F 29.77 in SSE 1.2 mph   67 % 0.00 in
22:42 81.1 °F 69.1 °F 29.78 in ESE 1.2 mph   67 % 0.00 in
22:47 80.8 °F 69.2 °F 29.78 in Calm     68 % 0.00 in
22:52 80.6 °F 69.1 °F 29.78 in SSE 1.2 mph 1.2 mph 68 % 0.00 in
22:57 80.4 °F 69.3 °F 29.79 in Calm     69 % 0.00 in
23:02 80.1 °F 69.0 °F 29.79 in SE 1.2 mph 1.2 mph 69 % 0.00 in
23:07 79.9 °F 69.2 °F 29.79 in ENE 1.2 mph 1.2 mph 70 % 0.00 in
23:17 79.7 °F 69.0 °F 29.79 in East 1.2 mph 1.2 mph 70 % 0.00 in
23:22 79.6 °F 69.0 °F 29.79 in South 1.2 mph 1.2 mph 70 % 0.00 in
23:27 79.5 °F 68.9 °F 29.79 in SE 1.2 mph 1.2 mph 70 % 0.00 in
23:32 79.5 °F 68.9 °F 29.79 in SE 2.3 mph 2.3 mph 70 % 0.00 in
23:42 79.2 °F 69.0 °F 29.79 in SSE 2.3 mph 2.3 mph 71 % 0.00 in
23:47 79.0 °F 68.8 °F 29.79 in SE 2.3 mph 2.3 mph 71 % 0.00 in
23:52 79.0 °F 68.8 °F 29.79 in SE 1.2 mph 1.2 mph 71 % 0.00 in
23:57 78.9 °F 68.7 °F 29.79 in SSE 2.3 mph 2.3 mph 71 % 0.00 in
Park Place, Exeter, Tulare County, California, USA
Compliments of Weather Underground - 2.75 mb